Time;durP1;ratioP1;P1;durP2;ratioP2;P2;SDS_P1;SDS_P2;PMS_P1;PMS_P2;Temp;Humidity;BMP_temperature;BMP_pressure;BME280_temperature;BME280_humidity;BME280_pressure;Samples;Min_cycle;Max_cycle;Signal;HPM_P1;HPM_P2
2024/04/13 00:00:00;;;;;;;6.63;4.90;;;14.40;99.90;;;;;;5485652;26;19998;-53
2024/04/13 00:02:26;;;;;;;8.82;4.78;;;14.40;99.90;;;;;;5486062;26;20005;-53
2024/04/13 00:04:51;;;;;;;9.65;4.32;;;14.30;99.90;;;;;;5485935;26;20462;-53
2024/04/13 00:07:17;;;;;;;5.55;4.38;;;14.30;99.90;;;;;;5486038;26;20001;-51
2024/04/13 00:09:42;;;;;;;8.48;4.85;;;14.30;99.90;;;;;;5485437;26;19994;-55
2024/04/13 00:12:08;;;;;;;8.77;5.07;;;14.20;99.90;;;;;;5486025;26;20466;-55
2024/04/13 00:14:33;;;;;;;16.15;4.72;;;14.20;99.90;;;;;;5486119;26;19998;-53
2024/04/13 00:17:00;;;;;;;20.40;4.80;;;14.20;99.90;;;;;;5486677;26;20418;-52
2024/04/13 00:19:25;;;;;;;9.98;5.55;;;14.10;99.90;;;;;;5488675;26;20361;-51
2024/04/13 00:21:51;;;;;;;9.90;6.10;;;14.10;99.90;;;;;;5490144;26;20002;-51
2024/04/13 00:24:16;;;;;;;8.80;5.00;;;14.20;99.90;;;;;;5489704;26;19998;-53
2024/04/13 00:26:42;;;;;;;8.30;5.47;;;14.20;99.90;;;;;;5489717;26;20004;-53
2024/04/13 00:29:09;;;;;;;12.30;6.00;;;14.20;99.90;;;;;;5489124;26;20100;-52
2024/04/13 00:31:34;;;;;;;5.00;4.50;;;14.20;99.90;;;;;;5490036;26;20345;-51
2024/04/13 00:34:02;;;;;;;79.32;46.85;;;14.20;99.90;;;;;;5487604;26;20006;-52
2024/04/13 00:36:27;;;;;;;16.55;12.18;;;14.20;99.90;;;;;;5489561;26;20414;-55
2024/04/13 00:38:53;;;;;;;10.23;7.22;;;14.20;99.90;;;;;;5489473;26;20065;-54
2024/04/13 00:41:19;;;;;;;6.20;5.15;;;14.10;99.90;;;;;;5489014;26;19994;-55
2024/04/13 00:43:45;;;;;;;11.10;5.03;;;14.10;99.90;;;;;;5489239;26;20014;-51
2024/04/13 00:46:16;;;;;;;7.22;5.82;;;14.10;99.90;;;;;;5489239;26;19998;-55
2024/04/13 00:48:43;;;;;;;4.90;4.40;;;14.00;99.90;;;;;;5487482;26;20010;-53
2024/04/13 00:51:12;;;;;;;10.20;5.18;;;14.10;99.90;;;;;;5489097;26;19998;-52
2024/04/13 00:53:40;;;;;;;8.00;4.95;;;14.00;99.90;;;;;;5489098;26;20341;-55
2024/04/13 00:56:07;;;;;;;5.70;4.50;;;14.70;99.90;;;;;;5489497;26;20026;-56
2024/04/13 00:58:35;;;;;;;5.95;3.78;;;13.80;99.90;;;;;;5489075;26;19998;-54
2024/04/13 01:01:02;;;;;;;5.35;4.15;;;13.70;99.90;;;;;;5488811;26;19994;-53
2024/04/13 01:03:28;;;;;;;12.10;5.80;;;13.40;99.90;;;;;;5488510;26;19998;-54
2024/04/13 01:05:55;;;;;;;6.05;4.70;;;13.70;99.90;;;;;;5489048;26;19994;-50
2024/04/13 01:08:21;;;;;;;4.95;4.53;;;13.60;99.90;;;;;;5488759;26;20014;-53
2024/04/13 01:10:47;;;;;;;7.20;4.93;;;13.60;99.90;;;;;;5488953;26;20080;-53
2024/04/13 01:13:13;;;;;;;4.25;3.72;;;13.60;99.90;;;;;;5489008;26;19998;-52
2024/04/13 01:15:39;;;;;;;10.27;5.22;;;13.50;99.90;;;;;;5489613;26;19994;-56
2024/04/13 01:18:05;;;;;;;7.38;4.97;;;13.50;99.90;;;;;;5488784;26;20460;-52
2024/04/13 01:20:33;;;;;;;7.78;5.13;;;13.40;99.90;;;;;;5486946;26;20005;-51
2024/04/13 01:22:59;;;;;;;6.03;4.95;;;13.40;99.90;;;;;;5488766;26;20005;-54
2024/04/13 01:25:25;;;;;;;10.70;5.47;;;13.30;99.90;;;;;;5489291;26;20070;-55
2024/04/13 01:27:51;;;;;;;7.90;4.72;;;13.30;99.90;;;;;;5487969;26;20003;-51
2024/04/13 01:30:18;;;;;;;7.55;5.03;;;13.30;99.90;;;;;;5487420;26;20009;-52
2024/04/13 01:32:44;;;;;;;6.90;5.20;;;13.30;99.90;;;;;;5488540;26;20074;-53
2024/04/13 01:35:13;;;;;;;7.70;6.68;;;13.30;99.90;;;;;;5488395;26;20009;-57
2024/04/13 01:37:42;;;;;;;8.20;6.38;;;13.30;99.90;;;;;;5488382;26;19994;-55
2024/04/13 01:40:09;;;;;;;7.80;7.00;;;13.40;99.90;;;;;;5488245;26;20005;-57
2024/04/13 01:42:36;;;;;;;9.80;6.80;;;13.40;99.90;;;;;;5488441;26;20010;-57
2024/04/13 01:45:03;;;;;;;10.55;6.95;;;13.40;99.90;;;;;;5488188;26;19998;-55
2024/04/13 01:47:28;;;;;;;9.18;7.13;;;13.40;99.90;;;;;;5488298;26;20010;-55
2024/04/13 01:49:54;;;;;;;7.10;6.03;;;13.50;99.90;;;;;;5488306;26;19998;-55
2024/04/13 01:52:22;;;;;;;8.77;7.10;;;13.50;99.90;;;;;;5488639;26;19994;-55
2024/04/13 01:54:48;;;;;;;10.68;7.60;;;13.50;99.90;;;;;;5488539;26;20030;-55
2024/04/13 01:57:14;;;;;;;9.80;6.28;;;13.50;99.90;;;;;;5488339;26;19995;-56
2024/04/13 01:59:43;;;;;;;8.05;6.55;;;13.50;99.90;;;;;;5488097;26;19995;-52
2024/04/13 02:02:09;;;;;;;8.20;6.13;;;13.50;99.90;;;;;;5488340;26;19998;-55
2024/04/13 02:04:35;;;;;;;8.32;6.07;;;13.40;99.90;;;;;;5487773;26;20009;-54
2024/04/13 02:07:01;;;;;;;9.38;5.45;;;13.40;99.90;;;;;;5486386;26;19994;-51
2024/04/13 02:09:28;;;;;;;5.68;5.10;;;13.40;99.90;;;;;;5488057;26;20074;-54
2024/04/13 02:11:54;;;;;;;7.95;6.22;;;13.30;99.90;;;;;;5488424;26;20329;-54
2024/04/13 02:14:20;;;;;;;8.63;6.45;;;13.30;99.90;;;;;;5488203;26;19994;-54
2024/04/13 02:16:45;;;;;;;10.52;7.68;;;13.40;99.90;;;;;;5487625;26;20009;-54
2024/04/13 02:19:12;;;;;;;11.05;7.72;;;13.40;99.90;;;;;;5488204;26;20009;-51
2024/04/13 02:21:38;;;;;;;10.15;7.28;;;13.40;99.90;;;;;;5488059;26;20002;-51
2024/04/13 02:24:04;;;;;;;11.38;7.55;;;13.30;99.90;;;;;;5487992;26;19994;-56
2024/04/13 02:26:30;;;;;;;8.90;6.95;;;13.40;99.90;;;;;;5487914;26;20004;-50
2024/04/13 02:28:55;;;;;;;15.80;7.03;;;13.40;99.90;;;;;;5487650;26;19994;-50
2024/04/13 02:31:20;;;;;;;8.27;6.65;;;13.30;99.90;;;;;;5488124;26;20002;-52
2024/04/13 02:33:46;;;;;;;10.95;6.18;;;13.30;99.90;;;;;;5487992;26;19994;-50
2024/04/13 02:36:12;;;;;;;7.47;5.40;;;13.30;99.90;;;;;;5487664;26;20461;-54
2024/04/13 02:38:37;;;;;;;10.98;6.85;;;13.30;99.90;;;;;;5485225;26;20005;-54
2024/04/13 02:41:06;;;;;;;11.88;6.03;;;13.30;99.90;;;;;;5487409;26;20066;-50
2024/04/13 02:43:31;;;;;;;7.20;6.00;;;13.30;99.90;;;;;;5485810;26;20006;-51
2024/04/13 02:46:07;;;;;;;8.18;5.35;;;13.30;99.90;;;;;;5487583;26;20364;-50
2024/04/13 02:48:32;;;;;;;11.02;6.78;;;13.20;99.90;;;;;;5487337;26;20006;-49
2024/04/13 02:50:59;;;;;;;6.72;6.03;;;13.20;99.90;;;;;;5485395;26;20513;-53
2024/04/13 02:53:24;;;;;;;8.02;5.38;;;13.10;99.90;;;;;;5485544;26;20050;-54
2024/04/13 02:55:50;;;;;;;5.93;5.28;;;13.10;99.90;;;;;;5487036;26;19994;-55
2024/04/13 02:58:16;;;;;;;8.85;5.88;;;12.90;99.90;;;;;;5484895;26;20009;-55
2024/04/13 03:00:53;;;;;;;5.55;5.03;;;12.90;99.90;;;;;;5487129;26;19998;-52
2024/04/13 03:03:19;;;;;;;8.60;6.05;;;12.90;99.90;;;;;;5485418;26;20009;-52
2024/04/13 03:05:44;;;;;;;8.38;6.05;;;12.80;99.90;;;;;;5487020;26;19998;-54
2024/04/13 03:08:11;;;;;;;12.27;7.22;;;12.90;99.90;;;;;;5486792;26;20005;-54
2024/04/13 03:10:37;;;;;;;7.72;6.63;;;12.90;99.90;;;;;;5486774;26;20081;-53
2024/04/13 03:13:02;;;;;;;8.50;6.75;;;12.90;99.90;;;;;;5485431;26;19995;-53
2024/04/13 03:15:28;;;;;;;9.27;6.28;;;12.90;99.90;;;;;;5486892;26;20085;-52
2024/04/13 03:17:53;;;;;;;7.55;5.63;;;12.90;99.90;;;;;;5486302;26;20452;-52
2024/04/13 03:20:19;;;;;;;7.47;6.28;;;12.90;99.90;;;;;;5485072;26;20066;-54
2024/04/13 03:22:44;;;;;;;8.55;5.97;;;12.90;99.90;;;;;;5487453;26;20461;-51
2024/04/13 03:25:10;;;;;;;6.90;5.55;;;12.80;99.90;;;;;;5484996;26;20026;-52
2024/04/13 03:27:35;;;;;;;8.55;5.28;;;12.70;99.90;;;;;;5484684;26;20006;-50
2024/04/13 03:30:01;;;;;;;6.93;5.47;;;12.60;99.90;;;;;;5486167;26;20068;-56
2024/04/13 03:32:27;;;;;;;9.98;5.07;;;12.60;99.90;;;;;;5486570;26;20350;-55
2024/04/13 03:34:52;;;;;;;8.52;5.97;;;12.50;99.90;;;;;;5486488;26;19995;-53
2024/04/13 03:37:18;;;;;;;5.63;5.07;;;12.50;99.90;;;;;;5484979;26;20372;-53
2024/04/13 03:39:43;;;;;;;8.32;5.72;;;12.50;99.90;;;;;;5486323;26;20009;-58
2024/04/13 03:42:09;;;;;;;5.72;5.22;;;12.40;99.90;;;;;;5486946;26;20043;-54
2024/04/13 03:44:34;;;;;;;5.82;5.10;;;12.50;99.90;;;;;;5486665;26;20456;-53
2024/04/13 03:47:00;;;;;;;6.57;4.93;;;12.40;99.90;;;;;;5484764;26;20329;-53
2024/04/13 03:49:25;;;;;;;10.27;6.20;;;12.40;99.90;;;;;;5486211;26;20451;-55
2024/04/13 03:51:51;;;;;;;6.63;5.65;;;12.40;99.90;;;;;;5487962;26;20009;-50
2024/04/13 03:54:17;;;;;;;15.18;5.88;;;12.40;99.90;;;;;;5488740;26;19998;-49
2024/04/13 03:56:42;;;;;;;9.20;5.88;;;12.40;99.90;;;;;;5490039;26;20009;-55
2024/04/13 03:59:08;;;;;;;6.28;5.70;;;12.40;99.90;;;;;;5487941;26;20070;-53
2024/04/13 04:01:34;;;;;;;6.68;6.07;;;12.40;99.90;;;;;;5490071;26;19998;-50
2024/04/13 04:04:00;;;;;;;8.05;5.32;;;12.40;99.90;;;;;;5490162;26;20406;-53
2024/04/13 04:06:25;;;;;;;6.20;5.13;;;12.40;99.90;;;;;;5490489;26;20005;-54
2024/04/13 04:08:51;;;;;;;5.90;5.38;;;12.20;99.90;;;;;;5487897;26;20445;-55
2024/04/13 04:11:16;;;;;;;7.10;5.05;;;12.40;99.90;;;;;;5489424;26;20010;-55
2024/04/13 04:13:42;;;;;;;8.60;4.72;;;12.40;99.90;;;;;;5488088;26;20004;-51
2024/04/13 04:16:07;;;;;;;6.03;5.00;;;12.30;99.90;;;;;;5489412;26;20005;-54
2024/04/13 04:18:33;;;;;;;5.95;4.88;;;12.30;99.90;;;;;;5490005;26;20457;-55
2024/04/13 04:20:58;;;;;;;6.47;5.88;;;12.30;99.90;;;;;;5488214;26;20426;-52
2024/04/13 04:23:24;;;;;;;7.10;5.72;;;12.20;99.90;;;;;;5487497;26;20022;-56
2024/04/13 04:25:50;;;;;;;5.70;5.20;;;12.20;99.90;;;;;;5490320;26;20330;-52
2024/04/13 04:28:15;;;;;;;8.60;6.40;;;12.20;99.90;;;;;;5487607;26;20005;-53
2024/04/13 04:30:45;;;;;;;7.68;5.15;;;12.20;99.90;;;;;;5489320;26;19996;-53
2024/04/13 04:33:12;;;;;;;4.93;4.43;;;12.10;99.90;;;;;;5489859;26;20033;-51
2024/04/13 04:35:38;;;;;;;5.57;4.78;;;12.10;99.90;;;;;;5489956;26;20101;-53
2024/04/13 04:38:03;;;;;;;8.55;5.47;;;12.00;99.90;;;;;;5489482;26;20030;-54
2024/04/13 04:40:29;;;;;;;7.35;4.95;;;12.00;99.90;;;;;;5489280;26;19993;-50
2024/04/13 04:42:54;;;;;;;10.18;5.38;;;12.10;99.90;;;;;;5487577;26;20066;-53
2024/04/13 04:45:20;;;;;;;6.82;5.35;;;12.10;99.90;;;;;;5489614;26;20004;-53
2024/04/13 04:47:47;;;;;;;5.30;4.80;;;12.00;99.90;;;;;;5489501;26;20074;-53
2024/04/13 04:50:12;;;;;;;7.60;4.93;;;12.10;99.90;;;;;;5489331;26;19998;-56
2024/04/13 04:52:38;;;;;;;6.65;5.85;;;12.10;99.90;;;;;;5489380;26;20004;-55
2024/04/13 04:55:05;;;;;;;6.43;5.45;;;12.10;99.90;;;;;;5489268;26;20063;-58
2024/04/13 04:57:30;;;;;;;6.75;6.05;;;12.10;99.90;;;;;;5489294;26;20009;-54
2024/04/13 04:59:56;;;;;;;8.13;7.03;;;12.10;99.90;;;;;;5487692;26;20002;-54
2024/04/13 05:02:22;;;;;;;8.00;6.88;;;12.20;99.90;;;;;;5488913;26;19994;-54
2024/04/13 05:04:47;;;;;;;7.32;6.60;;;12.20;99.90;;;;;;5488254;26;20027;-50
2024/04/13 05:07:13;;;;;;;6.60;6.00;;;12.30;99.90;;;;;;5489376;26;19991;-52
2024/04/13 05:09:38;;;;;;;7.80;6.55;;;12.50;99.90;;;;;;5488727;26;20463;-51
2024/04/13 05:12:04;;;;;;;7.65;6.20;;;12.80;99.90;;;;;;5487497;26;19990;-52
2024/04/13 05:14:29;;;;;;;14.07;5.22;;;13.10;99.90;;;;;;5489110;26;20034;-52
2024/04/13 05:16:55;;;;;;;6.60;5.35;;;13.50;99.90;;;;;;5488588;26;19998;-56
2024/04/13 05:19:20;;;;;;;7.80;5.20;;;13.90;99.90;;;;;;5488637;26;20357;-52
2024/04/13 05:21:46;;;;;;;5.85;4.30;;;14.10;99.90;;;;;;5489280;26;20005;-54
2024/04/13 05:24:11;;;;;;;6.90;5.40;;;14.40;99.90;;;;;;5488832;26;20457;-57
2024/04/13 05:26:37;;;;;;;5.78;5.13;;;14.70;99.90;;;;;;5487142;26;19994;-52
2024/04/13 05:29:03;;;;;;;10.23;5.68;;;14.80;99.90;;;;;;5488514;26;20073;-55
2024/04/13 05:31:29;;;;;;;5.97;5.00;;;15.00;99.90;;;;;;5487082;26;19998;-53
2024/04/13 05:33:54;;;;;;;6.03;4.88;;;15.20;99.90;;;;;;5488363;26;20468;-51
2024/04/13 05:36:21;;;;;;;5.97;5.35;;;15.30;99.90;;;;;;5488955;26;20030;-54
2024/04/13 05:38:46;;;;;;;7.32;5.15;;;15.40;99.90;;;;;;5488953;26;20066;-54
2024/04/13 05:41:12;;;;;;;5.32;4.35;;;15.50;99.90;;;;;;5488423;26;19999;-52
2024/04/13 05:43:37;;;;;;;5.45;4.95;;;15.60;99.90;;;;;;5488630;26;20369;-53
2024/04/13 05:46:03;;;;;;;5.78;5.20;;;15.50;99.90;;;;;;5488634;26;20002;-53
2024/04/13 05:48:29;;;;;;;7.50;4.65;;;15.50;99.90;;;;;;5486754;26;19998;-52
2024/04/13 05:50:56;;;;;;;4.88;4.20;;;15.40;99.90;;;;;;5488330;26;20002;-53
2024/04/13 05:53:22;;;;;;;9.30;5.38;;;15.40;99.90;;;;;;5489212;26;19994;-50
2024/04/13 05:55:48;;;;;;;6.57;5.78;;;15.50;99.90;;;;;;5488743;26;20009;-50
2024/04/13 05:58:14;;;;;;;5.75;4.95;;;15.50;99.90;;;;;;5488219;26;19998;-51
2024/04/13 06:00:40;;;;;;;5.85;5.10;;;15.60;99.90;;;;;;5488201;26;20446;-52
2024/04/13 06:03:06;;;;;;;4.75;4.25;;;15.60;99.90;;;;;;5488478;26;20033;-53
2024/04/13 06:05:31;;;;;;;6.50;5.38;;;15.60;99.90;;;;;;5486386;26;20541;-52
2024/04/13 06:07:57;;;;;;;7.30;6.22;;;15.90;99.90;;;;;;5486305;26;19998;-54
2024/04/13 06:10:23;;;;;;;9.35;6.50;;;16.10;99.90;;;;;;5487885;26;19994;-55
2024/04/13 06:12:48;;;;;;;8.02;6.45;;;16.40;99.90;;;;;;5486090;26;20012;-52
2024/04/13 06:15:14;;;;;;;8.77;6.30;;;16.40;99.90;;;;;;5486141;26;19994;-54
2024/04/13 06:17:40;;;;;;;9.75;6.32;;;16.50;99.90;;;;;;5485893;26;19994;-55
2024/04/13 06:20:08;;;;;;;7.53;6.03;;;16.70;99.90;;;;;;5487838;26;20012;-55
2024/04/13 06:22:34;;;;;;;7.72;5.65;;;16.90;99.90;;;;;;5480662;21;20014;-49
2024/04/13 06:25:00;;;;;;;10.25;6.43;;;17.10;99.90;;;;;;5450120;26;19995;-47
2024/04/13 06:27:25;;;;;;;9.52;6.20;;;17.20;99.90;;;;;;5451906;26;19986;-49
2024/04/13 06:29:51;;;;;;;11.45;6.07;;;17.50;99.90;;;;;;5451176;26;19999;-46
2024/04/13 06:32:17;;;;;;;15.18;6.93;;;17.60;99.90;;;;;;5451992;26;20350;-49
2024/04/13 06:34:43;;;;;;;8.43;5.72;;;17.70;99.90;;;;;;5451694;26;20326;-48
2024/04/13 06:37:08;;;;;;;7.15;6.18;;;17.60;99.90;;;;;;5451478;26;19987;-51
2024/04/13 06:39:34;;;;;;;7.35;5.07;;;18.40;99.90;;;;;;5451259;26;20002;-48
2024/04/13 06:42:00;;;;;;;8.50;5.55;;;18.70;99.90;;;;;;5451567;26;19998;-49
2024/04/13 06:44:26;;;;;;;6.97;5.20;;;19.00;99.90;;;;;;5451795;26;19991;-46
2024/04/13 06:46:51;;;;;;;6.93;5.47;;;19.50;99.90;;;;;;5449975;26;19995;-45
2024/04/13 06:49:18;;;;;;;8.73;4.95;;;19.60;99.90;;;;;;5449340;26;20002;-49
2024/04/13 06:51:44;;;;;;;8.55;4.82;;;20.10;99.90;;;;;;5450852;26;19991;-48
2024/04/13 06:54:10;;;;;;;7.65;5.30;;;20.60;99.90;;;;;;5451784;26;20002;-49
2024/04/13 06:56:35;;;;;;;5.22;4.32;;;21.40;99.90;;;;;;5451891;26;19990;-52
2024/04/13 06:59:01;;;;;;;7.22;4.95;;;21.90;99.90;;;;;;5449494;26;19991;-47
2024/04/13 07:01:27;;;;;;;7.57;5.40;;;22.60;99.90;;;;;;5451577;26;20056;-49
2024/04/13 07:03:56;;;;;;;10.50;5.07;;;22.60;99.90;;;;;;5449349;26;20044;-49
2024/04/13 07:06:22;;;;;;;11.07;5.40;;;22.70;99.90;;;;;;5451259;26;20002;-48
2024/04/13 07:08:48;;;;;;;7.40;4.63;;;22.70;99.90;;;;;;5449519;26;19995;-49
2024/04/13 07:11:15;;;;;;;5.10;4.53;;;22.40;99.90;;;;;;5450711;26;20442;-44
2024/04/13 07:13:40;;;;;;;7.35;5.03;;;22.10;99.90;;;;;;5451152;26;20005;-47
2024/04/13 07:16:06;;;;;;;10.30;5.53;;;22.20;99.90;;;;;;5451308;26;19995;-49
2024/04/13 07:18:34;;;;;;;6.65;5.43;;;22.40;99.90;;;;;;5449854;26;20064;-48
2024/04/13 07:21:00;;;;;;;8.63;5.38;;;22.50;99.90;;;;;;5449226;26;20372;-49
2024/04/13 07:23:26;;;;;;;8.18;5.68;;;22.60;99.90;;;;;;5450451;26;20006;-50
2024/04/13 07:26:01;;;;;;;6.32;5.38;;;22.80;99.90;;;;;;5447678;26;19999;-48
2024/04/13 07:28:28;;;;;;;13.95;5.88;;;23.10;99.90;;;;;;5448855;26;20014;-51
2024/04/13 07:30:54;;;;;;;7.07;4.95;;;23.60;99.80;;;;;;5450218;26;20063;-54
2024/04/13 07:33:19;;;;;;;7.28;5.10;;;24.00;99.20;;;;;;5450792;26;20362;-51
2024/04/13 07:35:45;;;;;;;5.78;4.40;;;24.10;98.70;;;;;;5450593;26;19995;-49
2024/04/13 07:38:11;;;;;;;9.63;5.00;;;24.00;99.20;;;;;;5450627;26;20010;-50
2024/04/13 07:40:37;;;;;;;8.15;5.13;;;24.30;99.40;;;;;;5450392;26;19995;-49
2024/04/13 07:43:03;;;;;;;6.90;4.35;;;24.60;98.00;;;;;;5450513;26;20003;-52
2024/04/13 07:45:29;;;;;;;7.25;3.75;;;24.70;97.60;;;;;;5450793;26;19994;-51
2024/04/13 07:47:55;;;;;;;5.70;4.90;;;24.70;98.00;;;;;;5450648;26;20473;-49
2024/04/13 07:50:20;;;;;;;9.30;5.07;;;24.80;97.60;;;;;;5450416;26;20030;-49
2024/04/13 07:52:46;;;;;;;7.57;5.40;;;24.80;97.80;;;;;;5450432;26;19995;-48
2024/04/13 07:55:12;;;;;;;8.55;5.13;;;24.70;97.80;;;;;;5448572;26;19999;-48
2024/04/13 07:57:37;;;;;;;5.82;4.65;;;24.90;97.60;;;;;;5447668;26;19995;-46
2024/04/13 08:00:04;;;;;;;12.13;5.10;;;25.30;97.70;;;;;;5450012;26;19999;-51
2024/04/13 08:02:30;;;;;;;5.80;4.40;;;25.60;97.10;;;;;;5447717;26;19995;-53
2024/04/13 08:04:55;;;;;;;9.00;5.25;;;25.90;96.30;;;;;;5448697;26;20083;-50
2024/04/13 08:07:21;;;;;;;8.07;5.50;;;25.80;96.20;;;;;;5448756;26;20466;-49
2024/04/13 08:09:46;;;;;;;7.22;5.90;;;25.90;96.30;;;;;;5447583;26;20011;-50
2024/04/13 08:12:12;;;;;;;7.85;5.95;;;25.90;96.10;;;;;;5449292;26;20104;-49
2024/04/13 08:14:38;;;;;;;7.32;4.90;;;25.70;96.30;;;;;;5450312;26;20003;-52
2024/04/13 08:17:04;;;;;;;9.88;5.32;;;25.30;96.30;;;;;;5450384;26;20451;-52
2024/04/13 08:19:29;;;;;;;7.97;5.78;;;24.90;97.20;;;;;;5449907;26;20499;-54
2024/04/13 08:21:55;;;;;;;7.85;4.80;;;24.70;97.10;;;;;;5450055;26;20182;-50
2024/04/13 08:24:20;;;;;;;7.68;5.75;;;24.20;97.90;;;;;;5450063;26;19999;-49
2024/04/13 08:26:46;;;;;;;11.73;5.75;;;24.00;98.50;;;;;;5450022;26;20007;-50
2024/04/13 08:29:11;;;;;;;8.95;5.63;;;24.10;98.30;;;;;;5450092;26;19999;-51
2024/04/13 08:31:37;;;;;;;7.95;5.57;;;24.20;98.70;;;;;;5450234;26;20014;-48
2024/04/13 08:34:03;;;;;;;9.00;4.90;;;24.40;97.70;;;;;;5449071;26;20021;-52
2024/04/13 08:36:29;;;;;;;8.73;5.15;;;24.50;97.80;;;;;;5452569;26;19999;-52
2024/04/13 08:38:55;;;;;;;7.55;4.93;;;24.60;97.50;;;;;;5454408;26;19994;-52
2024/04/13 08:41:48;;;;;;;9.05;5.93;;;24.80;97.60;;;;;;5455147;26;19995;-49
2024/04/13 08:44:13;;;;;;;8.27;5.47;;;24.70;97.40;;;;;;5451200;26;19994;-50
2024/04/13 08:46:40;;;;;;;6.95;4.57;;;24.90;97.40;;;;;;5452606;26;19998;-54
2024/04/13 08:49:07;;;;;;;7.78;4.82;;;25.10;97.50;;;;;;5455209;26;19998;-48
2024/04/13 08:51:37;;;;;;;6.18;4.00;;;25.70;96.80;;;;;;5454573;26;20010;-50
2024/04/13 08:54:05;;;;;;;8.23;5.07;;;26.00;96.80;;;;;;5455128;26;19995;-52
2024/04/13 08:56:35;;;;;;;10.00;4.90;;;26.20;96.30;;;;;;5453212;26;19999;-52
2024/04/13 08:59:05;;;;;;;8.48;5.20;;;26.70;95.90;;;;;;5453596;26;20080;-52
2024/04/13 09:01:33;;;;;;;8.15;5.00;;;26.70;95.30;;;;;;5452294;26;20027;-54
2024/04/13 09:03:58;;;;;;;8.82;5.43;;;26.10;95.40;;;;;;5445910;26;20003;-53
2024/04/13 09:06:24;;;;;;;8.40;4.68;;;25.20;96.30;;;;;;5451348;26;20327;-54
2024/04/13 09:08:50;;;;;;;5.53;4.25;;;24.50;97.80;;;;;;5453275;26;20013;-50
2024/04/13 09:11:17;;;;;;;8.95;5.03;;;24.20;98.70;;;;;;5452357;26;20018;-49
2024/04/13 09:13:45;;;;;;;9.07;5.13;;;24.10;99.00;;;;;;5450388;26;20002;-48
2024/04/13 09:16:11;;;;;;;7.70;4.40;;;24.10;98.90;;;;;;5453080;26;20005;-49
2024/04/13 09:18:40;;;;;;;7.97;4.50;;;23.80;98.10;;;;;;5451352;26;20342;-51
2024/04/13 09:21:07;;;;;;;7.45;4.25;;;23.50;99.20;;;;;;5452836;26;20072;-51
2024/04/13 09:23:33;;;;;;;7.28;4.50;;;23.40;99.30;;;;;;5452629;26;20009;-52
2024/04/13 09:26:03;;;;;;;8.18;4.15;;;23.50;99.60;;;;;;5452811;26;20021;-54
2024/04/13 09:28:39;;;;;;;9.93;5.00;;;23.60;99.80;;;;;;5450436;26;19999;-48
2024/04/13 09:31:05;;;;;;;6.75;4.50;;;23.60;99.50;;;;;;5452077;26;19999;-47
2024/04/13 09:33:30;;;;;;;11.57;4.88;;;23.70;99.90;;;;;;5450746;26;20002;-51
2024/04/13 09:35:59;;;;;;;7.07;4.03;;;23.70;99.50;;;;;;5451986;26;19999;-48
2024/04/13 09:38:25;;;;;;;7.05;4.32;;;23.70;99.40;;;;;;5416335;26;20459;-52
2024/04/13 09:40:57;;;;;;;6.97;3.95;;;23.70;99.10;;;;;;5443653;26;20022;-50
2024/04/13 09:43:23;;;;;;;26.23;17.00;;;23.60;98.90;;;;;;5450073;26;20459;-47
2024/04/13 09:45:56;;;;;;;6.78;5.05;;;23.40;99.40;;;;;;5445532;26;20013;-48
2024/04/13 09:48:22;;;;;;;5.22;3.95;;;23.20;99.90;;;;;;5451953;26;20335;-53
2024/04/13 09:50:47;;;;;;;8.07;4.82;;;23.10;99.70;;;;;;5421599;26;20032;-51
2024/04/13 09:53:13;;;;;;;5.55;5.00;;;23.30;99.40;;;;;;5421681;26;19998;-57
2024/04/13 09:55:40;;;;;;;9.80;4.72;;;23.30;99.30;;;;;;5422949;26;20004;-59
2024/04/13 09:58:07;;;;;;;6.68;4.25;;;23.20;99.90;;;;;;5419667;26;19999;-56
2024/04/13 10:00:34;;;;;;;8.45;5.68;;;23.20;99.60;;;;;;5421522;26;20071;-45
2024/04/13 10:03:00;;;;;;;6.38;4.78;;;23.00;99.90;;;;;;5437102;26;20095;-49
2024/04/13 10:05:29;;;;;;;10.32;4.85;;;22.80;99.90;;;;;;5426521;26;20003;-53
2024/04/13 10:07:55;;;;;;;6.63;4.55;;;22.90;99.90;;;;;;5413586;26;19999;-54
2024/04/13 10:10:22;;;;;;;8.82;5.05;;;22.90;99.90;;;;;;5413392;26;20014;-52
2024/04/13 10:12:48;;;;;;;8.25;5.78;;;23.00;99.90;;;;;;5406880;26;20007;-47
2024/04/13 10:15:15;;;;;;;8.77;5.50;;;22.90;99.90;;;;;;5419078;26;19999;-52
2024/04/13 10:17:42;;;;;;;8.68;6.07;;;23.00;99.90;;;;;;5424785;26;20023;-51
2024/04/13 10:20:08;;;;;;;8.80;6.38;;;22.70;99.90;;;;;;5421432;26;20010;-49
2024/04/13 10:22:33;;;;;;;10.23;5.63;;;22.60;99.90;;;;;;5424478;26;20909;-53
2024/04/13 10:25:04;;;;;;;7.72;5.53;;;22.40;99.90;;;;;;5432960;26;20009;-51
2024/04/13 10:27:33;;;;;;;7.72;5.43;;;22.40;99.90;;;;;;5423680;26;20003;-53
2024/04/13 10:29:59;;;;;;;7.78;5.57;;;22.60;99.90;;;;;;5419249;26;20003;-51
2024/04/13 10:32:34;;;;;;;7.95;6.40;;;22.80;99.90;;;;;;5420663;26;20194;-58
2024/04/13 10:35:11;;;;;;;6.70;5.22;;;22.90;99.90;;;;;;5429025;26;20014;-48
2024/04/13 10:37:36;;;;;;;10.52;5.13;;;22.90;99.90;;;;;;5412832;26;19999;-43
2024/04/13 10:40:05;;;;;;;12.43;5.40;;;23.00;99.90;;;;;;5422063;26;20439;-46
2024/04/13 10:42:35;;;;;;;11.57;4.82;;;23.10;99.90;;;;;;5416041;26;20022;-49
2024/04/13 10:45:02;;;;;;;13.52;5.40;;;23.10;99.90;;;;;;5435724;26;20002;-49
2024/04/13 10:47:29;;;;;;;8.43;4.63;;;23.10;99.90;;;;;;5447320;26;19999;-46
2024/04/13 10:49:56;;;;;;;7.00;4.28;;;23.10;99.90;;;;;;5449344;26;20446;-47
2024/04/13 10:52:22;;;;;;;5.47;3.85;;;23.00;99.90;;;;;;5450488;26;20007;-48
2024/04/13 10:54:56;;;;;;;6.40;5.40;;;23.00;99.90;;;;;;5450635;26;20002;-50
2024/04/13 10:57:23;;;;;;;5.38;4.53;;;23.10;99.90;;;;;;5447957;26;20483;-46
2024/04/13 10:59:49;;;;;;;6.40;4.57;;;23.10;99.90;;;;;;5449659;26;20443;-49
2024/04/13 11:02:14;;;;;;;7.95;4.32;;;23.00;99.90;;;;;;5447998;26;19999;-47
2024/04/13 11:04:43;;;;;;;6.70;3.97;;;23.00;99.90;;;;;;5449143;26;20038;-50
2024/04/13 11:07:14;;;;;;;4.15;3.42;;;23.00;99.90;;;;;;5450832;26;20067;-50
2024/04/13 11:09:43;;;;;;;5.45;4.30;;;23.10;99.90;;;;;;5449017;26;20010;-47
2024/04/13 11:12:11;;;;;;;7.60;4.15;;;23.00;99.90;;;;;;5450779;26;20010;-50
2024/04/13 11:14:37;;;;;;;7.30;4.05;;;23.00;99.90;;;;;;5450775;26;20346;-53
2024/04/13 11:17:03;;;;;;;6.90;3.35;;;23.00;99.90;;;;;;5450732;26;20009;-51
2024/04/13 11:19:28;;;;;;;5.57;2.83;;;22.80;99.90;;;;;;5450602;26;20006;-46
2024/04/13 11:21:57;;;;;;;6.82;2.58;;;22.80;98.70;;;;;;5450511;26;20013;-48
2024/04/13 11:24:22;;;;;;;6.13;2.25;;;22.70;98.10;;;;;;5449185;26;20471;-48
2024/04/13 11:26:48;;;;;;;3.50;2.90;;;22.60;98.60;;;;;;5450962;26;20075;-48
2024/04/13 11:29:14;;;;;;;39.28;27.05;;;22.60;99.30;;;;;;5450368;26;20449;-49
2024/04/13 11:31:40;;;;;;;16.63;9.10;;;22.70;99.00;;;;;;5450997;26;20064;-49
2024/04/13 11:34:05;;;;;;;28.40;12.05;;;22.70;99.40;;;;;;5449731;26;19999;-52
2024/04/13 11:36:31;;;;;;;7.38;2.80;;;22.70;99.70;;;;;;5451110;26;20056;-48
2024/04/13 11:38:58;;;;;;;4.60;2.67;;;22.70;99.80;;;;;;5447926;26;20334;-56
2024/04/13 11:41:23;;;;;;;9.05;3.05;;;22.70;99.90;;;;;;5447782;26;20003;-50
2024/04/13 11:43:53;;;;;;;5.60;2.78;;;22.70;99.70;;;;;;5451887;26;20006;-46
2024/04/13 11:46:19;;;;;;;8.85;2.90;;;22.70;99.30;;;;;;5450780;26;20427;-46
2024/04/13 11:48:44;;;;;;;4.95;2.70;;;22.70;99.80;;;;;;5450664;26;20010;-48
2024/04/13 11:51:10;;;;;;;8.35;3.15;;;22.70;99.80;;;;;;5450732;26;20002;-49
2024/04/13 11:53:36;;;;;;;10.70;3.83;;;22.60;99.60;;;;;;5450913;26;19995;-46
2024/04/13 11:56:02;;;;;;;9.95;2.97;;;22.50;99.90;;;;;;5448975;26;20645;-47
2024/04/13 11:58:28;;;;;;;6.82;3.78;;;22.50;99.40;;;;;;5450854;26;20009;-49
2024/04/13 12:00:53;;;;;;;7.72;2.88;;;22.30;99.70;;;;;;5448754;26;19995;-48
2024/04/13 12:03:19;;;;;;;4.50;2.13;;;22.30;99.90;;;;;;5449176;26;19995;-50
2024/04/13 12:05:46;;;;;;;4.45;2.00;;;22.40;99.90;;;;;;5448957;26;19999;-48
2024/04/13 12:08:11;;;;;;;4.68;2.20;;;22.30;99.00;;;;;;5449106;26;20459;-46
2024/04/13 12:10:38;;;;;;;4.25;2.20;;;22.30;99.90;;;;;;5451055;26;19995;-46
2024/04/13 12:13:03;;;;;;;5.13;2.17;;;22.40;99.50;;;;;;5450904;26;20003;-47
2024/04/13 12:15:29;;;;;;;4.93;2.85;;;22.40;99.50;;;;;;5455846;26;19999;-47
2024/04/13 12:17:54;;;;;;;3.60;2.40;;;22.40;99.00;;;;;;5456465;26;19999;-44
2024/04/13 12:20:20;;;;;;;12.02;3.20;;;22.40;99.90;;;;;;5456802;26;20028;-47
2024/04/13 12:22:45;;;;;;;5.68;3.55;;;22.50;99.70;;;;;;5444089;21;20013;-53
2024/04/13 12:25:11;;;;;;;3.80;2.38;;;22.60;99.90;;;;;;5454656;26;19991;-56
2024/04/13 12:27:36;;;;;;;5.25;2.90;;;22.70;99.90;;;;;;5451794;26;19994;-50
2024/04/13 12:30:03;;;;;;;24.63;19.60;;;22.70;99.20;;;;;;5453651;26;20002;-53
2024/04/13 12:32:30;;;;;;;16.58;10.73;;;22.80;99.20;;;;;;5453672;26;20597;-56
2024/04/13 12:34:55;;;;;;;6.47;2.90;;;22.80;99.90;;;;;;5453881;26;20006;-54
2024/04/13 12:37:21;;;;;;;9.18;3.00;;;22.80;98.90;;;;;;5454048;26;20010;-53
2024/04/13 12:39:46;;;;;;;8.13;2.90;;;22.60;98.70;;;;;;5452019;26;19994;-56